sensor_id;sensor_type;location;lat;lon;timestamp;temperature;humidity
14670;DHT22;7423;48.722;9.350;2022-07-04T00:00:50;24.60;97.00
14670;DHT22;7423;48.722;9.350;2022-07-04T00:03:17;24.70;97.20
14670;DHT22;7423;48.722;9.350;2022-07-04T00:05:43;24.60;98.10
14670;DHT22;7423;48.722;9.350;2022-07-04T00:08:10;24.60;98.30
14670;DHT22;7423;48.722;9.350;2022-07-04T00:10:37;24.60;98.90
14670;DHT22;7423;48.722;9.350;2022-07-04T00:13:04;26.90;99.40
14670;DHT22;7423;48.722;9.350;2022-07-04T00:15:32;24.50;98.70
14670;DHT22;7423;48.722;9.350;2022-07-04T00:17:59;24.50;99.10
14670;DHT22;7423;48.722;9.350;2022-07-04T00:20:25;24.30;99.00
14670;DHT22;7423;48.722;9.350;2022-07-04T00:22:52;24.50;99.10
14670;DHT22;7423;48.722;9.350;2022-07-04T00:25:19;24.40;99.30
14670;DHT22;7423;48.722;9.350;2022-07-04T00:27:46;24.70;99.50
14670;DHT22;7423;48.722;9.350;2022-07-04T00:30:13;24.40;99.70
14670;DHT22;7423;48.722;9.350;2022-07-04T00:32:40;24.40;99.90
14670;DHT22;7423;48.722;9.350;2022-07-04T00:35:07;24.40;99.90
14670;DHT22;7423;48.722;9.350;2022-07-04T00:37:35;24.30;99.90
14670;DHT22;7423;48.722;9.350;2022-07-04T00:40:02;24.20;99.90
14670;DHT22;7423;48.722;9.350;2022-07-04T00:42:29;24.00;99.90
14670;DHT22;7423;48.722;9.350;2022-07-04T00:44:56;23.60;99.90
14670;DHT22;7423;48.722;9.350;2022-07-04T00:47:22;23.50;99.90
14670;DHT22;7423;48.722;9.350;2022-07-04T00:49:49;23.40;99.90
14670;DHT22;7423;48.722;9.350;2022-07-04T00:52:17;23.70;99.90
14670;DHT22;7423;48.722;9.350;2022-07-04T00:54:44;23.80;99.90
14670;DHT22;7423;48.722;9.350;2022-07-04T00:57:12;23.90;99.90
14670;DHT22;7423;48.722;9.350;2022-07-04T00:59:39;23.90;99.90
14670;DHT22;7423;48.722;9.350;2022-07-04T01:02:06;24.00;99.90
14670;DHT22;7423;48.722;9.350;2022-07-04T01:04:34;24.00;99.60
14670;DHT22;7423;48.722;9.350;2022-07-04T01:07:02;24.00;99.30
14670;DHT22;7423;48.722;9.350;2022-07-04T01:09:30;24.10;99.00
14670;DHT22;7423;48.722;9.350;2022-07-04T01:11:56;24.10;98.90
14670;DHT22;7423;48.722;9.350;2022-07-04T01:14:23;24.10;98.90
14670;DHT22;7423;48.722;9.350;2022-07-04T01:16:50;24.10;98.80
14670;DHT22;7423;48.722;9.350;2022-07-04T01:19:17;24.10;98.60
14670;DHT22;7423;48.722;9.350;2022-07-04T01:21:44;24.20;98.50
14670;DHT22;7423;48.722;9.350;2022-07-04T01:24:12;24.10;98.30
14670;DHT22;7423;48.722;9.350;2022-07-04T01:26:39;24.10;98.40
14670;DHT22;7423;48.722;9.350;2022-07-04T01:29:06;24.10;98.10
14670;DHT22;7423;48.722;9.350;2022-07-04T01:31:33;24.10;98.20
14670;DHT22;7423;48.722;9.350;2022-07-04T01:34:00;24.10;98.00
14670;DHT22;7423;48.722;9.350;2022-07-04T01:36:26;24.10;98.10
14670;DHT22;7423;48.722;9.350;2022-07-04T01:38:53;24.10;98.10
14670;DHT22;7423;48.722;9.350;2022-07-04T01:41:22;24.10;97.70
14670;DHT22;7423;48.722;9.350;2022-07-04T01:43:49;24.10;97.50
14670;DHT22;7423;48.722;9.350;2022-07-04T01:46:16;24.10;97.90
14670;DHT22;7423;48.722;9.350;2022-07-04T01:48:43;24.10;97.70
14670;DHT22;7423;48.722;9.350;2022-07-04T01:51:10;24.20;97.80
14670;DHT22;7423;48.722;9.350;2022-07-04T01:53:37;24.00;97.80
14670;DHT22;7423;48.722;9.350;2022-07-04T01:56:04;23.90;97.70
14670;DHT22;7423;48.722;9.350;2022-07-04T01:58:31;23.90;97.90
14670;DHT22;7423;48.722;9.350;2022-07-04T02:00:58;23.90;97.90
14670;DHT22;7423;48.722;9.350;2022-07-04T02:03:43;23.90;98.10
14670;DHT22;7423;48.722;9.350;2022-07-04T02:06:11;23.90;98.20
14670;DHT22;7423;48.722;9.350;2022-07-04T02:08:38;23.90;98.00
14670;DHT22;7423;48.722;9.350;2022-07-04T02:11:24;23.90;98.20
14670;DHT22;7423;48.722;9.350;2022-07-04T02:13:51;23.90;98.10
14670;DHT22;7423;48.722;9.350;2022-07-04T02:16:17;23.90;98.00
14670;DHT22;7423;48.722;9.350;2022-07-04T02:18:44;23.80;98.00
14670;DHT22;7423;48.722;9.350;2022-07-04T02:21:11;23.90;97.80
14670;DHT22;7423;48.722;9.350;2022-07-04T02:23:39;23.90;98.10
14670;DHT22;7423;48.722;9.350;2022-07-04T02:26:06;24.00;97.90
14670;DHT22;7423;48.722;9.350;2022-07-04T02:28:33;23.80;98.00
14670;DHT22;7423;48.722;9.350;2022-07-04T02:31:00;23.80;98.20
14670;DHT22;7423;48.722;9.350;2022-07-04T02:33:27;23.70;98.20
14670;DHT22;7423;48.722;9.350;2022-07-04T02:35:53;23.70;97.90
14670;DHT22;7423;48.722;9.350;2022-07-04T02:38:20;23.70;98.30
14670;DHT22;7423;48.722;9.350;2022-07-04T02:40:47;23.70;98.40
14670;DHT22;7423;48.722;9.350;2022-07-04T02:43:14;23.70;97.90
14670;DHT22;7423;48.722;9.350;2022-07-04T02:45:41;23.70;97.90
14670;DHT22;7423;48.722;9.350;2022-07-04T02:48:08;23.80;98.00
14670;DHT22;7423;48.722;9.350;2022-07-04T02:50:34;23.70;98.00
14670;DHT22;7423;48.722;9.350;2022-07-04T02:53:01;23.70;98.20
14670;DHT22;7423;48.722;9.350;2022-07-04T02:55:28;23.60;98.10
14670;DHT22;7423;48.722;9.350;2022-07-04T02:57:55;23.60;98.30
14670;DHT22;7423;48.722;9.350;2022-07-04T03:00:22;23.70;98.20
14670;DHT22;7423;48.722;9.350;2022-07-04T03:02:49;23.60;98.30
14670;DHT22;7423;48.722;9.350;2022-07-04T03:05:16;23.60;98.50
14670;DHT22;7423;48.722;9.350;2022-07-04T03:07:43;23.60;98.40
14670;DHT22;7423;48.722;9.350;2022-07-04T03:10:10;23.60;98.50
14670;DHT22;7423;48.722;9.350;2022-07-04T03:12:37;23.60;98.30
14670;DHT22;7423;48.722;9.350;2022-07-04T03:15:04;23.70;98.30
14670;DHT22;7423;48.722;9.350;2022-07-04T03:17:31;23.60;98.30
14670;DHT22;7423;48.722;9.350;2022-07-04T03:19:58;23.60;98.40
14670;DHT22;7423;48.722;9.350;2022-07-04T03:22:25;23.60;98.50
14670;DHT22;7423;48.722;9.350;2022-07-04T03:24:53;23.60;98.50
14670;DHT22;7423;48.722;9.350;2022-07-04T03:27:20;23.50;98.60
14670;DHT22;7423;48.722;9.350;2022-07-04T03:29:47;23.50;98.70
14670;DHT22;7423;48.722;9.350;2022-07-04T03:32:13;23.50;98.80
14670;DHT22;7423;48.722;9.350;2022-07-04T03:34:40;23.40;98.90
14670;DHT22;7423;48.722;9.350;2022-07-04T03:37:07;23.40;98.80
14670;DHT22;7423;48.722;9.350;2022-07-04T03:39:34;23.40;98.70
14670;DHT22;7423;48.722;9.350;2022-07-04T03:42:01;23.30;98.40
14670;DHT22;7423;48.722;9.350;2022-07-04T03:44:28;23.30;98.80
14670;DHT22;7423;48.722;9.350;2022-07-04T03:46:55;23.40;98.80
14670;DHT22;7423;48.722;9.350;2022-07-04T03:49:21;23.40;98.70
14670;DHT22;7423;48.722;9.350;2022-07-04T03:51:48;23.40;98.90
14670;DHT22;7423;48.722;9.350;2022-07-04T03:54:15;23.40;99.10
14670;DHT22;7423;48.722;9.350;2022-07-04T03:56:43;23.40;99.00
14670;DHT22;7423;48.722;9.350;2022-07-04T03:59:10;23.40;99.20
14670;DHT22;7423;48.722;9.350;2022-07-04T04:01:37;23.30;99.00
14670;DHT22;7423;48.722;9.350;2022-07-04T04:04:04;23.40;99.10
14670;DHT22;7423;48.722;9.350;2022-07-04T04:06:49;23.40;99.00
14670;DHT22;7423;48.722;9.350;2022-07-04T04:09:16;23.30;99.00
14670;DHT22;7423;48.722;9.350;2022-07-04T04:11:45;23.20;99.20
14670;DHT22;7423;48.722;9.350;2022-07-04T04:14:12;23.20;99.30
14670;DHT22;7423;48.722;9.350;2022-07-04T04:16:39;23.20;99.20
14670;DHT22;7423;48.722;9.350;2022-07-04T04:19:09;23.20;99.40
14670;DHT22;7423;48.722;9.350;2022-07-04T04:21:36;23.30;99.30
14670;DHT22;7423;48.722;9.350;2022-07-04T04:24:03;23.30;99.30
14670;DHT22;7423;48.722;9.350;2022-07-04T04:26:30;23.30;99.20
14670;DHT22;7423;48.722;9.350;2022-07-04T04:28:57;23.20;99.40
14670;DHT22;7423;48.722;9.350;2022-07-04T04:31:24;23.20;99.40
14670;DHT22;7423;48.722;9.350;2022-07-04T04:33:51;23.10;99.60
14670;DHT22;7423;48.722;9.350;2022-07-04T04:36:18;23.10;99.50
14670;DHT22;7423;48.722;9.350;2022-07-04T04:38:45;23.00;99.60
14670;DHT22;7423;48.722;9.350;2022-07-04T04:41:12;23.10;99.60
14670;DHT22;7423;48.722;9.350;2022-07-04T04:43:39;23.10;99.70
14670;DHT22;7423;48.722;9.350;2022-07-04T04:46:05;23.00;99.80
14670;DHT22;7423;48.722;9.350;2022-07-04T04:48:32;23.10;99.70
14670;DHT22;7423;48.722;9.350;2022-07-04T04:50:59;23.10;99.80
14670;DHT22;7423;48.722;9.350;2022-07-04T04:53:34;23.10;99.90
14670;DHT22;7423;48.722;9.350;2022-07-04T04:56:01;23.10;99.90
14670;DHT22;7423;48.722;9.350;2022-07-04T04:58:28;23.10;99.90
14670;DHT22;7423;48.722;9.350;2022-07-04T05:00:54;23.00;99.90
14670;DHT22;7423;48.722;9.350;2022-07-04T05:03:41;23.00;99.90
14670;DHT22;7423;48.722;9.350;2022-07-04T05:06:09;23.00;99.90
14670;DHT22;7423;48.722;9.350;2022-07-04T05:08:36;23.00;99.90
14670;DHT22;7423;48.722;9.350;2022-07-04T05:11:03;23.00;99.90
14670;DHT22;7423;48.722;9.350;2022-07-04T05:13:30;23.00;99.90
14670;DHT22;7423;48.722;9.350;2022-07-04T05:15:57;23.10;99.90
14670;DHT22;7423;48.722;9.350;2022-07-04T05:18:24;23.10;99.90
14670;DHT22;7423;48.722;9.350;2022-07-04T05:20:50;23.00;99.90
14670;DHT22;7423;48.722;9.350;2022-07-04T05:23:17;23.00;99.90
14670;DHT22;7423;48.722;9.350;2022-07-04T05:25:44;23.10;99.90
14670;DHT22;7423;48.722;9.350;2022-07-04T05:28:11;23.00;99.90
14670;DHT22;7423;48.722;9.350;2022-07-04T05:30:38;23.00;99.90
14670;DHT22;7423;48.722;9.350;2022-07-04T05:33:05;23.00;99.90
14670;DHT22;7423;48.722;9.350;2022-07-04T05:35:32;22.90;99.90
14670;DHT22;7423;48.722;9.350;2022-07-04T05:37:59;22.90;99.90
14670;DHT22;7423;48.722;9.350;2022-07-04T05:40:26;22.80;99.90
14670;DHT22;7423;48.722;9.350;2022-07-04T05:42:52;22.90;99.90
14670;DHT22;7423;48.722;9.350;2022-07-04T05:45:19;23.00;99.90
14670;DHT22;7423;48.722;9.350;2022-07-04T05:47:46;23.00;99.90
14670;DHT22;7423;48.722;9.350;2022-07-04T05:50:13;23.10;99.90
14670;DHT22;7423;48.722;9.350;2022-07-04T05:52:41;23.10;99.80
14670;DHT22;7423;48.722;9.350;2022-07-04T05:55:08;23.10;99.90
14670;DHT22;7423;48.722;9.350;2022-07-04T05:57:35;23.10;99.80
14670;DHT22;7423;48.722;9.350;2022-07-04T06:00:08;23.00;99.90
14670;DHT22;7423;48.722;9.350;2022-07-04T06:02:36;23.10;99.90
14670;DHT22;7423;48.722;9.350;2022-07-04T06:05:03;23.00;99.90
14670;DHT22;7423;48.722;9.350;2022-07-04T06:07:30;23.10;99.90
14670;DHT22;7423;48.722;9.350;2022-07-04T06:09:57;23.10;99.90
14670;DHT22;7423;48.722;9.350;2022-07-04T06:12:24;23.10;99.90
14670;DHT22;7423;48.722;9.350;2022-07-04T06:14:50;23.10;99.90
14670;DHT22;7423;48.722;9.350;2022-07-04T06:17:17;23.20;99.70
14670;DHT22;7423;48.722;9.350;2022-07-04T06:19:45;23.20;99.80
14670;DHT22;7423;48.722;9.350;2022-07-04T06:22:11;23.20;99.80
14670;DHT22;7423;48.722;9.350;2022-07-04T06:24:39;23.20;99.80
14670;DHT22;7423;48.722;9.350;2022-07-04T06:27:07;23.20;99.80
14670;DHT22;7423;48.722;9.350;2022-07-04T06:29:34;23.20;99.60
14670;DHT22;7423;48.722;9.350;2022-07-04T06:32:01;23.20;99.40
14670;DHT22;7423;48.722;9.350;2022-07-04T06:34:28;23.30;99.40
14670;DHT22;7423;48.722;9.350;2022-07-04T06:37:14;23.30;99.40
14670;DHT22;7423;48.722;9.350;2022-07-04T06:39:41;23.30;99.30
14670;DHT22;7423;48.722;9.350;2022-07-04T06:42:08;23.30;99.40
14670;DHT22;7423;48.722;9.350;2022-07-04T06:44:34;23.20;99.40
14670;DHT22;7423;48.722;9.350;2022-07-04T06:47:02;23.30;99.30
14670;DHT22;7423;48.722;9.350;2022-07-04T06:49:29;23.30;99.30
14670;DHT22;7423;48.722;9.350;2022-07-04T06:51:56;23.30;99.20
14670;DHT22;7423;48.722;9.350;2022-07-04T06:54:23;23.40;99.30
14670;DHT22;7423;48.722;9.350;2022-07-04T06:56:50;23.40;99.40
14670;DHT22;7423;48.722;9.350;2022-07-04T06:59:37;23.40;99.30
14670;DHT22;7423;48.722;9.350;2022-07-04T07:02:04;23.50;99.30
14670;DHT22;7423;48.722;9.350;2022-07-04T07:04:31;23.50;99.10
14670;DHT22;7423;48.722;9.350;2022-07-04T07:06:58;23.30;99.20
14670;DHT22;7423;48.722;9.350;2022-07-04T07:09:25;23.40;99.20
14670;DHT22;7423;48.722;9.350;2022-07-04T07:11:52;23.50;99.00
14670;DHT22;7423;48.722;9.350;2022-07-04T07:14:18;23.50;99.30
14670;DHT22;7423;48.722;9.350;2022-07-04T07:16:45;23.60;99.40
14670;DHT22;7423;48.722;9.350;2022-07-04T07:19:12;23.60;99.40
14670;DHT22;7423;48.722;9.350;2022-07-04T07:21:39;23.60;99.30
14670;DHT22;7423;48.722;9.350;2022-07-04T07:24:06;23.50;99.50
14670;DHT22;7423;48.722;9.350;2022-07-04T07:26:33;23.60;99.40
14670;DHT22;7423;48.722;9.350;2022-07-04T07:29:00;23.60;99.60
14670;DHT22;7423;48.722;9.350;2022-07-04T07:31:26;23.70;99.50
14670;DHT22;7423;48.722;9.350;2022-07-04T07:33:54;23.70;99.30
14670;DHT22;7423;48.722;9.350;2022-07-04T07:36:20;23.80;99.20
14670;DHT22;7423;48.722;9.350;2022-07-04T07:38:47;23.80;99.00
14670;DHT22;7423;48.722;9.350;2022-07-04T07:41:14;23.90;98.90
14670;DHT22;7423;48.722;9.350;2022-07-04T07:43:41;24.00;98.70
14670;DHT22;7423;48.722;9.350;2022-07-04T07:46:08;23.90;98.70
14670;DHT22;7423;48.722;9.350;2022-07-04T07:48:35;24.00;98.70
14670;DHT22;7423;48.722;9.350;2022-07-04T07:51:02;23.90;98.50
14670;DHT22;7423;48.722;9.350;2022-07-04T07:53:29;23.90;98.70
14670;DHT22;7423;48.722;9.350;2022-07-04T07:55:56;23.90;98.70
14670;DHT22;7423;48.722;9.350;2022-07-04T07:58:23;24.00;98.50
14670;DHT22;7423;48.722;9.350;2022-07-04T08:00:50;24.00;98.80
14670;DHT22;7423;48.722;9.350;2022-07-04T08:03:21;24.00;98.90
14670;DHT22;7423;48.722;9.350;2022-07-04T08:06:07;24.00;98.80
14670;DHT22;7423;48.722;9.350;2022-07-04T08:08:34;24.10;98.70
14670;DHT22;7423;48.722;9.350;2022-07-04T08:11:01;24.10;98.60
14670;DHT22;7423;48.722;9.350;2022-07-04T08:13:29;24.00;98.90
14670;DHT22;7423;48.722;9.350;2022-07-04T08:15:56;24.10;98.80
14670;DHT22;7423;48.722;9.350;2022-07-04T08:18:23;24.10;98.60
14670;DHT22;7423;48.722;9.350;2022-07-04T08:20:50;24.20;98.60
14670;DHT22;7423;48.722;9.350;2022-07-04T08:23:37;24.20;98.40
14670;DHT22;7423;48.722;9.350;2022-07-04T08:26:17;24.20;98.40
14670;DHT22;7423;48.722;9.350;2022-07-04T08:28:44;24.20;98.30
14670;DHT22;7423;48.722;9.350;2022-07-04T08:31:11;24.30;98.40
14670;DHT22;7423;48.722;9.350;2022-07-04T08:33:58;24.20;98.40
14670;DHT22;7423;48.722;9.350;2022-07-04T08:36:25;24.30;98.40
14670;DHT22;7423;48.722;9.350;2022-07-04T08:38:52;24.30;98.60
14670;DHT22;7423;48.722;9.350;2022-07-04T08:41:19;24.30;98.40
14670;DHT22;7423;48.722;9.350;2022-07-04T08:43:52;24.30;98.50
14670;DHT22;7423;48.722;9.350;2022-07-04T08:46:20;24.30;98.50
14670;DHT22;7423;48.722;9.350;2022-07-04T08:48:51;24.30;98.40
14670;DHT22;7423;48.722;9.350;2022-07-04T08:51:41;24.30;98.50
14670;DHT22;7423;48.722;9.350;2022-07-04T08:54:12;24.30;98.70
14670;DHT22;7423;48.722;9.350;2022-07-04T08:56:58;24.40;98.80
14670;DHT22;7423;48.722;9.350;2022-07-04T08:59:43;24.30;98.80
14670;DHT22;7423;48.722;9.350;2022-07-04T09:02:16;24.30;98.80
14670;DHT22;7423;48.722;9.350;2022-07-04T09:04:45;24.40;98.60
14670;DHT22;7423;48.722;9.350;2022-07-04T09:07:13;24.30;98.90
14670;DHT22;7423;48.722;9.350;2022-07-04T09:09:41;24.40;98.80
14670;DHT22;7423;48.722;9.350;2022-07-04T09:12:13;24.40;98.60
14670;DHT22;7423;48.722;9.350;2022-07-04T09:14:40;24.50;98.40
14670;DHT22;7423;48.722;9.350;2022-07-04T09:17:07;24.50;98.50
14670;DHT22;7423;48.722;9.350;2022-07-04T09:19:34;24.50;98.50
14670;DHT22;7423;48.722;9.350;2022-07-04T09:22:08;24.60;98.70
14670;DHT22;7423;48.722;9.350;2022-07-04T09:24:51;24.60;98.50
14670;DHT22;7423;48.722;9.350;2022-07-04T09:27:33;24.70;98.30
14670;DHT22;7423;48.722;9.350;2022-07-04T09:30:03;24.80;98.10
14670;DHT22;7423;48.722;9.350;2022-07-04T09:32:47;24.80;98.00
14670;DHT22;7423;48.722;9.350;2022-07-04T09:35:19;24.80;98.30
14670;DHT22;7423;48.722;9.350;2022-07-04T09:37:53;24.80;98.30
14670;DHT22;7423;48.722;9.350;2022-07-04T09:40:29;24.90;98.30
14670;DHT22;7423;48.722;9.350;2022-07-04T09:43:00;24.80;98.00
14670;DHT22;7423;48.722;9.350;2022-07-04T09:45:28;24.90;97.90
14670;DHT22;7423;48.722;9.350;2022-07-04T09:47:57;24.90;97.80
14670;DHT22;7423;48.722;9.350;2022-07-04T09:50:26;24.80;97.80
14670;DHT22;7423;48.722;9.350;2022-07-04T09:52:58;24.90;97.80
14670;DHT22;7423;48.722;9.350;2022-07-04T09:55:37;24.90;97.60
14670;DHT22;7423;48.722;9.350;2022-07-04T09:58:11;24.90;97.80
14670;DHT22;7423;48.722;9.350;2022-07-04T10:00:43;25.00;97.70
14670;DHT22;7423;48.722;9.350;2022-07-04T10:06:12;25.00;97.30
14670;DHT22;7423;48.722;9.350;2022-07-04T10:08:40;25.00;97.10
14670;DHT22;7423;48.722;9.350;2022-07-04T10:11:08;25.00;97.10
14670;DHT22;7423;48.722;9.350;2022-07-04T10:13:40;25.00;96.90
14670;DHT22;7423;48.722;9.350;2022-07-04T10:16:07;24.90;96.80
14670;DHT22;7423;48.722;9.350;2022-07-04T10:18:34;24.90;96.80
14670;DHT22;7423;48.722;9.350;2022-07-04T10:21:02;24.90;97.00
14670;DHT22;7423;48.722;9.350;2022-07-04T10:23:29;25.00;96.90
14670;DHT22;7423;48.722;9.350;2022-07-04T10:25:58;25.00;96.80
14670;DHT22;7423;48.722;9.350;2022-07-04T10:28:26;25.00;96.70
14670;DHT22;7423;48.722;9.350;2022-07-04T10:30:55;25.10;96.80
14670;DHT22;7423;48.722;9.350;2022-07-04T10:33:26;25.10;96.30
14670;DHT22;7423;48.722;9.350;2022-07-04T10:36:04;25.20;96.30
14670;DHT22;7423;48.722;9.350;2022-07-04T10:38:53;25.20;96.00
14670;DHT22;7423;48.722;9.350;2022-07-04T10:41:22;25.30;95.30
14670;DHT22;7423;48.722;9.350;2022-07-04T10:44:00;25.30;95.40
14670;DHT22;7423;48.722;9.350;2022-07-04T10:46:30;25.40;94.60
14670;DHT22;7423;48.722;9.350;2022-07-04T10:49:18;25.40;94.00
14670;DHT22;7423;48.722;9.350;2022-07-04T10:54:38;25.70;94.00
14670;DHT22;7423;48.722;9.350;2022-07-04T10:57:15;25.60;93.80
14670;DHT22;7423;48.722;9.350;2022-07-04T11:02:27;25.60;93.30
14670;DHT22;7423;48.722;9.350;2022-07-04T11:18:13;25.90;92.80
14670;DHT22;7423;48.722;9.350;2022-07-04T11:20:46;26.10;92.70
14670;DHT22;7423;48.722;9.350;2022-07-04T11:23:18;26.20;92.30
14670;DHT22;7423;48.722;9.350;2022-07-04T11:25:49;26.20;92.20
14670;DHT22;7423;48.722;9.350;2022-07-04T11:31:11;26.40;92.00
14670;DHT22;7423;48.722;9.350;2022-07-04T11:33:40;26.50;91.80
14670;DHT22;7423;48.722;9.350;2022-07-04T11:36:17;26.50;91.70
14670;DHT22;7423;48.722;9.350;2022-07-04T11:38:58;26.60;91.70
14670;DHT22;7423;48.722;9.350;2022-07-04T11:41:38;26.70;91.60
14670;DHT22;7423;48.722;9.350;2022-07-04T11:44:34;26.90;91.20
14670;DHT22;7423;48.722;9.350;2022-07-04T11:47:35;27.10;91.50
14670;DHT22;7423;48.722;9.350;2022-07-04T11:55:24;28.10;91.80
14670;DHT22;7423;48.722;9.350;2022-07-04T11:57:51;28.40;91.50
14670;DHT22;7423;48.722;9.350;2022-07-04T12:00:26;29.10;91.10
14670;DHT22;7423;48.722;9.350;2022-07-04T12:02:59;30.00;89.60
14670;DHT22;7423;48.722;9.350;2022-07-04T12:05:27;31.40;86.00
14670;DHT22;7423;48.722;9.350;2022-07-04T12:07:54;33.10;80.50
14670;DHT22;7423;48.722;9.350;2022-07-04T12:10:41;35.30;73.80
14670;DHT22;7423;48.722;9.350;2022-07-04T12:13:14;38.20;66.20
14670;DHT22;7423;48.722;9.350;2022-07-04T12:15:49;40.50;59.30
14670;DHT22;7423;48.722;9.350;2022-07-04T12:18:21;42.60;53.70
14670;DHT22;7423;48.722;9.350;2022-07-04T12:21:12;44.80;49.20
14670;DHT22;7423;48.722;9.350;2022-07-04T12:23:42;46.90;44.70
14670;DHT22;7423;48.722;9.350;2022-07-04T12:26:32;48.70;41.30
14670;DHT22;7423;48.722;9.350;2022-07-04T12:28:59;49.90;38.40
14670;DHT22;7423;48.722;9.350;2022-07-04T12:31:39;49.80;37.60
14670;DHT22;7423;48.722;9.350;2022-07-04T12:34:15;50.40;36.30
14670;DHT22;7423;48.722;9.350;2022-07-04T12:36:55;50.90;35.30
14670;DHT22;7423;48.722;9.350;2022-07-04T12:39:35;51.50;34.40
14670;DHT22;7423;48.722;9.350;2022-07-04T12:42:05;51.70;33.90
14670;DHT22;7423;48.722;9.350;2022-07-04T12:44:37;52.40;33.00
14670;DHT22;7423;48.722;9.350;2022-07-04T12:47:05;52.10;32.70
14670;DHT22;7423;48.722;9.350;2022-07-04T12:49:53;52.00;33.00
14670;DHT22;7423;48.722;9.350;2022-07-04T12:52:20;52.00;32.60
14670;DHT22;7423;48.722;9.350;2022-07-04T12:55:05;51.80;32.30
14670;DHT22;7423;48.722;9.350;2022-07-04T12:57:36;51.70;32.50
14670;DHT22;7423;48.722;9.350;2022-07-04T13:00:03;52.00;32.10
14670;DHT22;7423;48.722;9.350;2022-07-04T13:02:51;51.90;31.80
14670;DHT22;7423;48.722;9.350;2022-07-04T13:05:18;51.60;32.10
14670;DHT22;7423;48.722;9.350;2022-07-04T13:07:46;51.40;32.10
14670;DHT22;7423;48.722;9.350;2022-07-04T13:10:13;50.90;32.50
14670;DHT22;7423;48.722;9.350;2022-07-04T13:12:40;50.20;32.80
14670;DHT22;7423;48.722;9.350;2022-07-04T13:15:07;49.60;33.30
14670;DHT22;7423;48.722;9.350;2022-07-04T13:17:38;48.60;34.40
14670;DHT22;7423;48.722;9.350;2022-07-04T13:20:06;47.40;35.00
14670;DHT22;7423;48.722;9.350;2022-07-04T13:22:33;46.10;36.70
14670;DHT22;7423;48.722;9.350;2022-07-04T13:25:00;44.60;37.70
14670;DHT22;7423;48.722;9.350;2022-07-04T13:27:30;43.10;39.90
14670;DHT22;7423;48.722;9.350;2022-07-04T13:29:57;41.60;41.40
14670;DHT22;7423;48.722;9.350;2022-07-04T13:32:24;40.60;42.50
14670;DHT22;7423;48.722;9.350;2022-07-04T13:34:51;39.80;43.60
14670;DHT22;7423;48.722;9.350;2022-07-04T13:37:18;38.80;45.10
14670;DHT22;7423;48.722;9.350;2022-07-04T13:39:45;38.20;46.10
14670;DHT22;7423;48.722;9.350;2022-07-04T13:42:18;37.60;47.20
14670;DHT22;7423;48.722;9.350;2022-07-04T13:45:08;36.80;47.90
14670;DHT22;7423;48.722;9.350;2022-07-04T13:47:35;36.10;49.50
14670;DHT22;7423;48.722;9.350;2022-07-04T13:50:03;35.30;50.40
14670;DHT22;7423;48.722;9.350;2022-07-04T13:52:30;34.80;51.10
14670;DHT22;7423;48.722;9.350;2022-07-04T13:54:58;34.20;51.50
14670;DHT22;7423;48.722;9.350;2022-07-04T13:57:25;33.70;52.70
14670;DHT22;7423;48.722;9.350;2022-07-04T13:59:51;33.30;53.00
14670;DHT22;7423;48.722;9.350;2022-07-04T14:02:19;33.00;54.00
14670;DHT22;7423;48.722;9.350;2022-07-04T14:04:46;32.70;54.50
14670;DHT22;7423;48.722;9.350;2022-07-04T14:07:12;32.30;55.40
14670;DHT22;7423;48.722;9.350;2022-07-04T14:09:45;32.00;55.80
14670;DHT22;7423;48.722;9.350;2022-07-04T14:12:13;31.80;55.80
14670;DHT22;7423;48.722;9.350;2022-07-04T14:14:40;31.50;56.60
14670;DHT22;7423;48.722;9.350;2022-07-04T14:17:07;31.40;57.50
14670;DHT22;7423;48.722;9.350;2022-07-04T14:19:54;31.10;58.60
14670;DHT22;7423;48.722;9.350;2022-07-04T14:22:22;30.90;58.70
14670;DHT22;7423;48.722;9.350;2022-07-04T14:24:49;30.80;58.40
14670;DHT22;7423;48.722;9.350;2022-07-04T14:27:16;30.30;58.80
14670;DHT22;7423;48.722;9.350;2022-07-04T14:29:43;30.20;60.00
14670;DHT22;7423;48.722;9.350;2022-07-04T14:32:10;30.00;60.40
14670;DHT22;7423;48.722;9.350;2022-07-04T14:34:37;30.00;61.10
14670;DHT22;7423;48.722;9.350;2022-07-04T14:37:04;29.90;61.10
14670;DHT22;7423;48.722;9.350;2022-07-04T14:39:31;29.90;61.80
14670;DHT22;7423;48.722;9.350;2022-07-04T14:41:58;29.90;62.30
14670;DHT22;7423;48.722;9.350;2022-07-04T14:44:25;29.80;62.30
14670;DHT22;7423;48.722;9.350;2022-07-04T14:46:52;29.80;62.20
14670;DHT22;7423;48.722;9.350;2022-07-04T14:49:19;29.70;62.00
14670;DHT22;7423;48.722;9.350;2022-07-04T14:51:47;29.60;62.10
14670;DHT22;7423;48.722;9.350;2022-07-04T14:54:14;29.50;63.00
14670;DHT22;7423;48.722;9.350;2022-07-04T14:56:40;29.50;63.40
14670;DHT22;7423;48.722;9.350;2022-07-04T14:59:07;29.60;64.00
14670;DHT22;7423;48.722;9.350;2022-07-04T15:01:34;29.50;64.10
14670;DHT22;7423;48.722;9.350;2022-07-04T15:04:01;29.50;64.40
14670;DHT22;7423;48.722;9.350;2022-07-04T15:06:28;29.40;64.70
14670;DHT22;7423;48.722;9.350;2022-07-04T15:08:55;29.40;64.40
14670;DHT22;7423;48.722;9.350;2022-07-04T15:11:22;29.50;64.90
14670;DHT22;7423;48.722;9.350;2022-07-04T15:13:49;29.40;65.10
14670;DHT22;7423;48.722;9.350;2022-07-04T15:16:16;29.30;65.20
14670;DHT22;7423;48.722;9.350;2022-07-04T15:18:49;29.30;65.60
14670;DHT22;7423;48.722;9.350;2022-07-04T15:21:16;29.40;65.70
14670;DHT22;7423;48.722;9.350;2022-07-04T15:24:02;29.40;65.40
14670;DHT22;7423;48.722;9.350;2022-07-04T15:26:41;29.20;66.30
14670;DHT22;7423;48.722;9.350;2022-07-04T15:29:10;29.20;66.40
14670;DHT22;7423;48.722;9.350;2022-07-04T15:31:39;29.10;66.60
14670;DHT22;7423;48.722;9.350;2022-07-04T15:34:07;29.00;67.00
14670;DHT22;7423;48.722;9.350;2022-07-04T15:36:34;28.90;66.80
14670;DHT22;7423;48.722;9.350;2022-07-04T15:39:09;28.80;67.40
14670;DHT22;7423;48.722;9.350;2022-07-04T15:41:38;28.70;67.80
14670;DHT22;7423;48.722;9.350;2022-07-04T15:44:05;28.70;68.20
14670;DHT22;7423;48.722;9.350;2022-07-04T15:46:33;28.70;68.20
14670;DHT22;7423;48.722;9.350;2022-07-04T15:49:03;28.70;68.20
14670;DHT22;7423;48.722;9.350;2022-07-04T15:51:37;28.70;68.20
14670;DHT22;7423;48.722;9.350;2022-07-04T15:54:12;28.60;68.20
14670;DHT22;7423;48.722;9.350;2022-07-04T15:56:39;28.70;68.50
14670;DHT22;7423;48.722;9.350;2022-07-04T15:59:06;28.60;68.50
14670;DHT22;7423;48.722;9.350;2022-07-04T16:01:33;28.60;68.80
14670;DHT22;7423;48.722;9.350;2022-07-04T16:04:00;28.50;69.00
14670;DHT22;7423;48.722;9.350;2022-07-04T16:06:29;28.50;68.80
14670;DHT22;7423;48.722;9.350;2022-07-04T16:08:56;28.40;69.40
14670;DHT22;7423;48.722;9.350;2022-07-04T16:11:23;28.60;69.70
14670;DHT22;7423;48.722;9.350;2022-07-04T16:13:50;28.60;69.90
14670;DHT22;7423;48.722;9.350;2022-07-04T16:16:18;28.60;70.40
14670;DHT22;7423;48.722;9.350;2022-07-04T16:18:45;28.60;70.50
14670;DHT22;7423;48.722;9.350;2022-07-04T16:21:12;28.40;70.90
14670;DHT22;7423;48.722;9.350;2022-07-04T16:23:39;28.40;71.10
14670;DHT22;7423;48.722;9.350;2022-07-04T16:26:06;28.30;71.10
14670;DHT22;7423;48.722;9.350;2022-07-04T16:28:33;28.30;71.10